sensor_id;sensor_type;location;lat;lon;timestamp;temperature;humidity
19248;DHT22;9758;48.640;8.148;2022-12-29T00:10:49;15.20;51.60
19248;DHT22;9758;48.640;8.148;2022-12-29T00:16:33;15.20;51.90
19248;DHT22;9758;48.640;8.148;2022-12-29T00:19:38;15.20;51.80
19248;DHT22;9758;48.640;8.148;2022-12-29T00:22:27;15.30;52.00
19248;DHT22;9758;48.640;8.148;2022-12-29T00:25:15;15.30;51.60
19248;DHT22;9758;48.640;8.148;2022-12-29T00:28:11;15.30;51.60
19248;DHT22;9758;48.640;8.148;2022-12-29T00:30:59;15.30;51.90
19248;DHT22;9758;48.640;8.148;2022-12-29T00:33:56;15.30;51.90
19248;DHT22;9758;48.640;8.148;2022-12-29T00:36:42;15.30;51.90
19248;DHT22;9758;48.640;8.148;2022-12-29T00:39:26;15.30;51.90
19248;DHT22;9758;48.640;8.148;2022-12-29T00:42:12;15.30;51.70
19248;DHT22;9758;48.640;8.148;2022-12-29T01:10:43;15.10;52.10
19248;DHT22;9758;48.640;8.148;2022-12-29T01:13:27;15.10;51.70
19248;DHT22;9758;48.640;8.148;2022-12-29T01:16:13;15.10;52.00
19248;DHT22;9758;48.640;8.148;2022-12-29T01:18:58;15.00;51.90
19248;DHT22;9758;48.640;8.148;2022-12-29T01:21:41;15.00;52.10
19248;DHT22;9758;48.640;8.148;2022-12-29T01:24:23;15.00;52.10
19248;DHT22;9758;48.640;8.148;2022-12-29T01:27:25;15.00;52.00
19248;DHT22;9758;48.640;8.148;2022-12-29T01:30:17;15.00;51.90
19248;DHT22;9758;48.640;8.148;2022-12-29T01:36:19;14.90;51.80
19248;DHT22;9758;48.640;8.148;2022-12-29T01:39:01;14.90;52.00
19248;DHT22;9758;48.640;8.148;2022-12-29T01:41:45;14.90;52.00
19248;DHT22;9758;48.640;8.148;2022-12-29T02:01:02;14.80;52.10
19248;DHT22;9758;48.640;8.148;2022-12-29T02:03:43;14.80;51.80
19248;DHT22;9758;48.640;8.148;2022-12-29T02:09:39;14.80;51.80
19248;DHT22;9758;48.640;8.148;2022-12-29T02:12:44;14.80;52.10
19248;DHT22;9758;48.640;8.148;2022-12-29T02:15:42;14.80;51.70
19248;DHT22;9758;48.640;8.148;2022-12-29T02:22:09;14.80;51.90
19248;DHT22;9758;48.640;8.148;2022-12-29T02:28:58;14.80;52.00
19248;DHT22;9758;48.640;8.148;2022-12-29T03:04:59;14.70;52.10
19248;DHT22;9758;48.640;8.148;2022-12-29T03:08:13;14.70;51.70
19248;DHT22;9758;48.640;8.148;2022-12-29T03:11:12;14.70;52.10
19248;DHT22;9758;48.640;8.148;2022-12-29T03:14:12;14.70;51.90
19248;DHT22;9758;48.640;8.148;2022-12-29T03:17:03;14.70;52.10
19248;DHT22;9758;48.640;8.148;2022-12-29T04:28:07;14.50;52.30
19248;DHT22;9758;48.640;8.148;2022-12-29T04:31:01;14.50;52.30
19248;DHT22;9758;48.640;8.148;2022-12-29T04:37:46;14.40;52.40
19248;DHT22;9758;48.640;8.148;2022-12-29T04:40:50;14.40;52.50
19248;DHT22;9758;48.640;8.148;2022-12-29T06:38:16;14.60;52.20
19248;DHT22;9758;48.640;8.148;2022-12-29T06:41:45;14.60;51.90
19248;DHT22;9758;48.640;8.148;2022-12-29T06:51:53;14.50;52.20
19248;DHT22;9758;48.640;8.148;2022-12-29T07:43:58;14.80;51.90
19248;DHT22;9758;48.640;8.148;2022-12-29T07:46:31;14.80;51.80
19248;DHT22;9758;48.640;8.148;2022-12-29T07:49:01;14.80;51.40
19248;DHT22;9758;48.640;8.148;2022-12-29T07:51:44;14.90;51.10
19248;DHT22;9758;48.640;8.148;2022-12-29T07:54:26;14.90;51.50
19248;DHT22;9758;48.640;8.148;2022-12-29T07:56:53;15.00;51.70
19248;DHT22;9758;48.640;8.148;2022-12-29T07:59:21;14.90;52.10
19248;DHT22;9758;48.640;8.148;2022-12-29T08:01:48;15.00;52.00
19248;DHT22;9758;48.640;8.148;2022-12-29T08:04:16;15.10;51.70
19248;DHT22;9758;48.640;8.148;2022-12-29T08:07:12;15.10;51.30
19248;DHT22;9758;48.640;8.148;2022-12-29T08:09:57;15.10;51.40
19248;DHT22;9758;48.640;8.148;2022-12-29T08:12:47;15.20;51.40
19248;DHT22;9758;48.640;8.148;2022-12-29T08:19:09;15.30;51.10
19248;DHT22;9758;48.640;8.148;2022-12-29T08:21:48;15.30;51.20
19248;DHT22;9758;48.640;8.148;2022-12-29T08:24:37;15.30;51.10
19248;DHT22;9758;48.640;8.148;2022-12-29T08:27:16;15.30;51.30
19248;DHT22;9758;48.640;8.148;2022-12-29T08:29:51;15.40;51.20
19248;DHT22;9758;48.640;8.148;2022-12-29T08:32:32;15.30;50.90
19248;DHT22;9758;48.640;8.148;2022-12-29T08:35:10;15.40;51.20
19248;DHT22;9758;48.640;8.148;2022-12-29T08:37:40;15.30;51.20
19248;DHT22;9758;48.640;8.148;2022-12-29T08:40:22;15.40;51.20
19248;DHT22;9758;48.640;8.148;2022-12-29T08:42:57;15.40;51.10
19248;DHT22;9758;48.640;8.148;2022-12-29T08:45:40;15.40;51.20
19248;DHT22;9758;48.640;8.148;2022-12-29T08:48:20;15.30;51.10
19248;DHT22;9758;48.640;8.148;2022-12-29T08:51:03;15.30;51.10
19248;DHT22;9758;48.640;8.148;2022-12-29T08:53:44;15.30;50.90
19248;DHT22;9758;48.640;8.148;2022-12-29T08:56:25;15.30;50.90
19248;DHT22;9758;48.640;8.148;2022-12-29T08:58:57;15.30;51.10
19248;DHT22;9758;48.640;8.148;2022-12-29T09:01:38;15.30;51.20
19248;DHT22;9758;48.640;8.148;2022-12-29T09:04:19;15.30;51.30
19248;DHT22;9758;48.640;8.148;2022-12-29T09:06:57;15.30;51.30
19248;DHT22;9758;48.640;8.148;2022-12-29T09:09:38;15.30;51.40
19248;DHT22;9758;48.640;8.148;2022-12-29T09:12:07;15.30;51.30
19248;DHT22;9758;48.640;8.148;2022-12-29T09:15:31;15.30;51.30
19248;DHT22;9758;48.640;8.148;2022-12-29T09:19:02;15.20;51.20
19248;DHT22;9758;48.640;8.148;2022-12-29T12:21:27;14.80;53.40
19248;DHT22;9758;48.640;8.148;2022-12-29T12:24:32;14.80;53.30
19248;DHT22;9758;48.640;8.148;2022-12-29T12:27:20;14.90;53.30
19248;DHT22;9758;48.640;8.148;2022-12-29T12:30:04;14.90;53.30
19248;DHT22;9758;48.640;8.148;2022-12-29T12:32:41;14.90;53.30
19248;DHT22;9758;48.640;8.148;2022-12-29T12:35:36;15.00;53.30
19248;DHT22;9758;48.640;8.148;2022-12-29T13:23:44;14.90;53.40
19248;DHT22;9758;48.640;8.148;2022-12-29T13:26:41;14.80;53.30
19248;DHT22;9758;48.640;8.148;2022-12-29T13:29:18;14.90;53.40
19248;DHT22;9758;48.640;8.148;2022-12-29T13:32:35;14.80;53.40
19248;DHT22;9758;48.640;8.148;2022-12-29T13:58:48;15.10;53.40
19248;DHT22;9758;48.640;8.148;2022-12-29T14:01:48;15.10;53.40
19248;DHT22;9758;48.640;8.148;2022-12-29T14:04:57;15.10;53.40
19248;DHT22;9758;48.640;8.148;2022-12-29T14:08:03;15.10;53.50
19248;DHT22;9758;48.640;8.148;2022-12-29T14:11:13;15.00;53.40
